sensor_id;sensor_type;location;lat;lon;timestamp;temperature;humidity
21037;DHT22;10677;50.942;4.028;2023-11-22T00:01:09;7.40;99.90
21037;DHT22;10677;50.942;4.028;2023-11-22T00:03:35;7.10;99.90
21037;DHT22;10677;50.942;4.028;2023-11-22T00:06:01;6.90;99.90
21037;DHT22;10677;50.942;4.028;2023-11-22T00:08:27;7.00;99.90
21037;DHT22;10677;50.942;4.028;2023-11-22T00:10:52;7.00;99.90
21037;DHT22;10677;50.942;4.028;2023-11-22T00:13:18;6.90;99.90
21037;DHT22;10677;50.942;4.028;2023-11-22T00:15:43;7.10;99.90
21037;DHT22;10677;50.942;4.028;2023-11-22T00:18:09;6.90;99.90
21037;DHT22;10677;50.942;4.028;2023-11-22T00:20:35;7.00;99.90
21037;DHT22;10677;50.942;4.028;2023-11-22T00:23:02;7.00;99.90
21037;DHT22;10677;50.942;4.028;2023-11-22T00:25:28;7.20;99.90
21037;DHT22;10677;50.942;4.028;2023-11-22T00:27:54;7.40;99.90
21037;DHT22;10677;50.942;4.028;2023-11-22T00:30:20;7.50;99.90
21037;DHT22;10677;50.942;4.028;2023-11-22T00:32:46;7.60;99.90
21037;DHT22;10677;50.942;4.028;2023-11-22T00:35:12;7.70;99.90
21037;DHT22;10677;50.942;4.028;2023-11-22T00:37:37;7.80;99.90
21037;DHT22;10677;50.942;4.028;2023-11-22T00:40:03;7.70;99.90
21037;DHT22;10677;50.942;4.028;2023-11-22T00:42:36;7.60;99.90
21037;DHT22;10677;50.942;4.028;2023-11-22T00:45:04;7.60;99.90
21037;DHT22;10677;50.942;4.028;2023-11-22T00:47:34;7.50;99.90
21037;DHT22;10677;50.942;4.028;2023-11-22T00:50:00;7.50;99.90
21037;DHT22;10677;50.942;4.028;2023-11-22T00:52:26;7.30;99.90
21037;DHT22;10677;50.942;4.028;2023-11-22T00:54:52;7.30;99.90
21037;DHT22;10677;50.942;4.028;2023-11-22T00:57:18;7.40;99.90
21037;DHT22;10677;50.942;4.028;2023-11-22T00:59:44;7.40;99.90
21037;DHT22;10677;50.942;4.028;2023-11-22T01:02:09;7.40;99.90
21037;DHT22;10677;50.942;4.028;2023-11-22T01:04:35;7.40;99.90
21037;DHT22;10677;50.942;4.028;2023-11-22T01:07:03;7.40;99.90
21037;DHT22;10677;50.942;4.028;2023-11-22T01:09:32;7.40;99.90
21037;DHT22;10677;50.942;4.028;2023-11-22T01:11:58;7.40;99.90
21037;DHT22;10677;50.942;4.028;2023-11-22T01:14:25;7.30;99.90
21037;DHT22;10677;50.942;4.028;2023-11-22T01:16:52;7.20;99.90
21037;DHT22;10677;50.942;4.028;2023-11-22T01:19:17;7.30;99.90
21037;DHT22;10677;50.942;4.028;2023-11-22T01:21:43;7.40;99.90
21037;DHT22;10677;50.942;4.028;2023-11-22T01:24:09;7.10;99.90
21037;DHT22;10677;50.942;4.028;2023-11-22T01:26:35;6.60;99.90
21037;DHT22;10677;50.942;4.028;2023-11-22T01:29:00;6.50;99.90
21037;DHT22;10677;50.942;4.028;2023-11-22T01:31:27;6.90;99.90
21037;DHT22;10677;50.942;4.028;2023-11-22T01:33:54;7.10;99.90
21037;DHT22;10677;50.942;4.028;2023-11-22T01:36:20;7.10;99.90
21037;DHT22;10677;50.942;4.028;2023-11-22T01:38:45;7.10;99.90
21037;DHT22;10677;50.942;4.028;2023-11-22T01:41:12;7.10;99.90
21037;DHT22;10677;50.942;4.028;2023-11-22T01:43:40;6.70;99.90
21037;DHT22;10677;50.942;4.028;2023-11-22T01:46:14;6.70;99.90
21037;DHT22;10677;50.942;4.028;2023-11-22T01:48:42;6.70;99.90
21037;DHT22;10677;50.942;4.028;2023-11-22T01:51:08;6.60;99.90
21037;DHT22;10677;50.942;4.028;2023-11-22T01:53:34;6.70;99.90
21037;DHT22;10677;50.942;4.028;2023-11-22T01:56:00;7.00;99.90
21037;DHT22;10677;50.942;4.028;2023-11-22T01:58:26;7.10;99.90
21037;DHT22;10677;50.942;4.028;2023-11-22T02:00:53;7.10;99.90
21037;DHT22;10677;50.942;4.028;2023-11-22T02:03:18;7.10;99.90
21037;DHT22;10677;50.942;4.028;2023-11-22T02:05:45;7.00;99.90
21037;DHT22;10677;50.942;4.028;2023-11-22T02:08:11;6.90;99.90
21037;DHT22;10677;50.942;4.028;2023-11-22T02:10:39;6.90;99.90
21037;DHT22;10677;50.942;4.028;2023-11-22T02:13:06;6.80;99.90
21037;DHT22;10677;50.942;4.028;2023-11-22T02:15:34;6.80;99.90
21037;DHT22;10677;50.942;4.028;2023-11-22T02:17:59;6.70;99.90
21037;DHT22;10677;50.942;4.028;2023-11-22T02:20:25;6.70;99.90
21037;DHT22;10677;50.942;4.028;2023-11-22T02:22:51;6.60;99.90
21037;DHT22;10677;50.942;4.028;2023-11-22T02:25:19;6.60;99.90
21037;DHT22;10677;50.942;4.028;2023-11-22T02:27:45;6.60;99.90
21037;DHT22;10677;50.942;4.028;2023-11-22T02:30:10;6.60;99.90
21037;DHT22;10677;50.942;4.028;2023-11-22T02:32:36;6.70;99.90
21037;DHT22;10677;50.942;4.028;2023-11-22T02:35:02;6.60;99.90
21037;DHT22;10677;50.942;4.028;2023-11-22T02:37:32;6.70;99.90
21037;DHT22;10677;50.942;4.028;2023-11-22T02:40:06;6.70;99.90
21037;DHT22;10677;50.942;4.028;2023-11-22T02:42:35;6.70;99.90
21037;DHT22;10677;50.942;4.028;2023-11-22T02:45:01;6.60;99.90
21037;DHT22;10677;50.942;4.028;2023-11-22T02:47:26;6.60;99.90
21037;DHT22;10677;50.942;4.028;2023-11-22T02:49:52;6.60;99.90
21037;DHT22;10677;50.942;4.028;2023-11-22T02:52:19;6.50;99.90
21037;DHT22;10677;50.942;4.028;2023-11-22T02:54:45;6.60;99.90
21037;DHT22;10677;50.942;4.028;2023-11-22T02:57:11;6.60;99.90
21037;DHT22;10677;50.942;4.028;2023-11-22T02:59:40;6.50;99.90
21037;DHT22;10677;50.942;4.028;2023-11-22T03:02:06;6.40;99.90
21037;DHT22;10677;50.942;4.028;2023-11-22T03:04:32;6.40;99.90
21037;DHT22;10677;50.942;4.028;2023-11-22T03:06:59;6.30;99.90
21037;DHT22;10677;50.942;4.028;2023-11-22T03:09:25;6.40;99.90
21037;DHT22;10677;50.942;4.028;2023-11-22T03:11:52;6.30;99.90
21037;DHT22;10677;50.942;4.028;2023-11-22T03:14:17;6.30;99.90
21037;DHT22;10677;50.942;4.028;2023-11-22T03:16:43;6.20;99.90
21037;DHT22;10677;50.942;4.028;2023-11-22T03:19:09;6.40;99.90
21037;DHT22;10677;50.942;4.028;2023-11-22T03:21:36;6.40;99.90
21037;DHT22;10677;50.942;4.028;2023-11-22T03:24:02;6.30;99.90
21037;DHT22;10677;50.942;4.028;2023-11-22T03:26:29;6.20;99.90
21037;DHT22;10677;50.942;4.028;2023-11-22T03:28:55;6.00;99.90
21037;DHT22;10677;50.942;4.028;2023-11-22T03:31:21;5.80;99.90
21037;DHT22;10677;50.942;4.028;2023-11-22T03:33:47;5.80;99.90
21037;DHT22;10677;50.942;4.028;2023-11-22T03:36:12;5.80;99.90
21037;DHT22;10677;50.942;4.028;2023-11-22T03:38:39;5.70;99.90
21037;DHT22;10677;50.942;4.028;2023-11-22T03:41:05;5.70;99.90
21037;DHT22;10677;50.942;4.028;2023-11-22T03:43:31;5.70;99.90
21037;DHT22;10677;50.942;4.028;2023-11-22T03:45:56;5.70;99.90
21037;DHT22;10677;50.942;4.028;2023-11-22T03:48:22;5.70;99.90
21037;DHT22;10677;50.942;4.028;2023-11-22T03:50:49;5.80;99.90
21037;DHT22;10677;50.942;4.028;2023-11-22T03:53:15;5.90;99.90
21037;DHT22;10677;50.942;4.028;2023-11-22T03:55:40;5.90;99.90
21037;DHT22;10677;50.942;4.028;2023-11-22T03:58:06;5.90;99.90
21037;DHT22;10677;50.942;4.028;2023-11-22T04:00:33;5.90;99.90
21037;DHT22;10677;50.942;4.028;2023-11-22T04:02:59;6.00;99.90
21037;DHT22;10677;50.942;4.028;2023-11-22T04:05:27;5.90;99.90
21037;DHT22;10677;50.942;4.028;2023-11-22T04:07:53;5.80;99.90
21037;DHT22;10677;50.942;4.028;2023-11-22T04:10:20;5.70;99.90
21037;DHT22;10677;50.942;4.028;2023-11-22T04:12:47;5.70;99.90
21037;DHT22;10677;50.942;4.028;2023-11-22T04:15:13;5.70;99.90
21037;DHT22;10677;50.942;4.028;2023-11-22T04:17:40;5.70;99.90
21037;DHT22;10677;50.942;4.028;2023-11-22T04:20:09;5.70;99.90
21037;DHT22;10677;50.942;4.028;2023-11-22T04:22:36;5.70;99.90
21037;DHT22;10677;50.942;4.028;2023-11-22T04:25:03;5.80;99.90
21037;DHT22;10677;50.942;4.028;2023-11-22T04:27:29;5.80;99.90
21037;DHT22;10677;50.942;4.028;2023-11-22T04:29:55;5.70;99.90
21037;DHT22;10677;50.942;4.028;2023-11-22T04:32:21;5.70;99.90
21037;DHT22;10677;50.942;4.028;2023-11-22T04:34:47;5.70;99.90
21037;DHT22;10677;50.942;4.028;2023-11-22T04:37:13;5.70;99.90
21037;DHT22;10677;50.942;4.028;2023-11-22T04:39:39;5.60;99.90
21037;DHT22;10677;50.942;4.028;2023-11-22T04:42:05;5.60;99.90
21037;DHT22;10677;50.942;4.028;2023-11-22T04:44:31;5.60;99.90
21037;DHT22;10677;50.942;4.028;2023-11-22T04:46:57;5.60;99.90
21037;DHT22;10677;50.942;4.028;2023-11-22T04:49:25;5.60;99.90
21037;DHT22;10677;50.942;4.028;2023-11-22T04:51:50;5.60;99.90
21037;DHT22;10677;50.942;4.028;2023-11-22T04:54:16;5.80;99.90
21037;DHT22;10677;50.942;4.028;2023-11-22T04:56:42;5.60;99.90
21037;DHT22;10677;50.942;4.028;2023-11-22T04:59:08;5.50;99.90
21037;DHT22;10677;50.942;4.028;2023-11-22T05:01:35;5.50;99.90
21037;DHT22;10677;50.942;4.028;2023-11-22T05:04:01;5.80;99.90
21037;DHT22;10677;50.942;4.028;2023-11-22T05:06:27;6.10;99.90
21037;DHT22;10677;50.942;4.028;2023-11-22T05:08:54;6.00;99.90
21037;DHT22;10677;50.942;4.028;2023-11-22T05:11:20;5.80;99.90
21037;DHT22;10677;50.942;4.028;2023-11-22T05:13:46;5.80;99.90
21037;DHT22;10677;50.942;4.028;2023-11-22T05:16:12;5.80;99.90
21037;DHT22;10677;50.942;4.028;2023-11-22T05:18:38;5.90;99.90
21037;DHT22;10677;50.942;4.028;2023-11-22T05:21:04;5.70;99.90
21037;DHT22;10677;50.942;4.028;2023-11-22T05:23:30;5.70;99.90
21037;DHT22;10677;50.942;4.028;2023-11-22T05:25:58;5.90;99.90
21037;DHT22;10677;50.942;4.028;2023-11-22T05:28:25;6.20;99.90
21037;DHT22;10677;50.942;4.028;2023-11-22T05:30:51;6.30;99.90
21037;DHT22;10677;50.942;4.028;2023-11-22T05:33:16;6.30;99.90
21037;DHT22;10677;50.942;4.028;2023-11-22T05:35:42;6.10;99.90
21037;DHT22;10677;50.942;4.028;2023-11-22T05:38:08;6.10;99.90
21037;DHT22;10677;50.942;4.028;2023-11-22T05:40:34;6.10;99.90
21037;DHT22;10677;50.942;4.028;2023-11-22T05:42:59;6.00;99.90
21037;DHT22;10677;50.942;4.028;2023-11-22T05:45:26;5.90;99.90
21037;DHT22;10677;50.942;4.028;2023-11-22T05:47:51;5.90;99.90
21037;DHT22;10677;50.942;4.028;2023-11-22T05:50:17;5.90;99.90
21037;DHT22;10677;50.942;4.028;2023-11-22T05:52:43;6.00;99.90
21037;DHT22;10677;50.942;4.028;2023-11-22T05:55:09;6.10;99.90
21037;DHT22;10677;50.942;4.028;2023-11-22T05:57:35;6.20;99.90
21037;DHT22;10677;50.942;4.028;2023-11-22T06:00:01;6.20;99.90
21037;DHT22;10677;50.942;4.028;2023-11-22T06:02:27;6.10;99.90
21037;DHT22;10677;50.942;4.028;2023-11-22T06:04:53;6.10;99.90
21037;DHT22;10677;50.942;4.028;2023-11-22T06:07:18;6.10;99.90
21037;DHT22;10677;50.942;4.028;2023-11-22T06:09:44;6.10;99.90
21037;DHT22;10677;50.942;4.028;2023-11-22T06:12:10;6.10;99.90
21037;DHT22;10677;50.942;4.028;2023-11-22T06:14:35;6.10;99.90
21037;DHT22;10677;50.942;4.028;2023-11-22T06:17:01;6.10;99.90
21037;DHT22;10677;50.942;4.028;2023-11-22T06:19:28;6.20;99.90
21037;DHT22;10677;50.942;4.028;2023-11-22T06:21:54;6.20;99.90
21037;DHT22;10677;50.942;4.028;2023-11-22T06:24:19;6.20;99.90
21037;DHT22;10677;50.942;4.028;2023-11-22T06:26:45;6.30;99.90
21037;DHT22;10677;50.942;4.028;2023-11-22T06:29:15;6.30;99.90
21037;DHT22;10677;50.942;4.028;2023-11-22T06:31:41;6.40;99.90
21037;DHT22;10677;50.942;4.028;2023-11-22T06:34:07;6.30;99.90
21037;DHT22;10677;50.942;4.028;2023-11-22T06:36:33;6.30;99.90
21037;DHT22;10677;50.942;4.028;2023-11-22T06:38:59;6.40;99.90
21037;DHT22;10677;50.942;4.028;2023-11-22T06:41:25;6.40;99.90
21037;DHT22;10677;50.942;4.028;2023-11-22T06:43:51;6.50;99.90
21037;DHT22;10677;50.942;4.028;2023-11-22T06:46:16;6.60;99.90
21037;DHT22;10677;50.942;4.028;2023-11-22T06:48:42;6.60;99.90
21037;DHT22;10677;50.942;4.028;2023-11-22T06:51:09;6.60;99.90
21037;DHT22;10677;50.942;4.028;2023-11-22T06:53:35;6.70;99.90
21037;DHT22;10677;50.942;4.028;2023-11-22T06:56:01;6.70;99.90
21037;DHT22;10677;50.942;4.028;2023-11-22T06:58:27;6.80;99.90
21037;DHT22;10677;50.942;4.028;2023-11-22T07:00:53;6.90;99.90
21037;DHT22;10677;50.942;4.028;2023-11-22T07:03:20;7.00;99.90
21037;DHT22;10677;50.942;4.028;2023-11-22T07:05:46;7.00;99.90
21037;DHT22;10677;50.942;4.028;2023-11-22T07:08:12;6.90;99.90
21037;DHT22;10677;50.942;4.028;2023-11-22T07:10:38;6.80;99.90
21037;DHT22;10677;50.942;4.028;2023-11-22T07:13:03;6.80;99.90
21037;DHT22;10677;50.942;4.028;2023-11-22T07:15:29;6.70;99.90
21037;DHT22;10677;50.942;4.028;2023-11-22T07:17:55;6.70;99.90
21037;DHT22;10677;50.942;4.028;2023-11-22T07:20:21;6.70;99.90
21037;DHT22;10677;50.942;4.028;2023-11-22T07:22:49;6.80;99.90
21037;DHT22;10677;50.942;4.028;2023-11-22T07:25:21;6.80;99.90
21037;DHT22;10677;50.942;4.028;2023-11-22T07:27:51;6.80;99.90
21037;DHT22;10677;50.942;4.028;2023-11-22T07:30:17;6.80;99.90
21037;DHT22;10677;50.942;4.028;2023-11-22T07:32:45;6.80;99.90
21037;DHT22;10677;50.942;4.028;2023-11-22T07:35:11;6.90;99.90
21037;DHT22;10677;50.942;4.028;2023-11-22T07:37:38;6.90;99.90
21037;DHT22;10677;50.942;4.028;2023-11-22T07:40:10;7.00;99.90
21037;DHT22;10677;50.942;4.028;2023-11-22T07:42:39;7.00;99.90
21037;DHT22;10677;50.942;4.028;2023-11-22T07:45:06;7.00;99.90
21037;DHT22;10677;50.942;4.028;2023-11-22T07:47:32;7.00;99.90
21037;DHT22;10677;50.942;4.028;2023-11-22T07:49:58;7.00;99.90
21037;DHT22;10677;50.942;4.028;2023-11-22T07:52:24;7.10;99.90
21037;DHT22;10677;50.942;4.028;2023-11-22T07:54:58;7.20;99.90
21037;DHT22;10677;50.942;4.028;2023-11-22T07:57:25;7.30;99.90
21037;DHT22;10677;50.942;4.028;2023-11-22T07:59:51;7.40;99.90
21037;DHT22;10677;50.942;4.028;2023-11-22T08:02:20;7.40;99.90
21037;DHT22;10677;50.942;4.028;2023-11-22T08:04:46;7.50;99.90
21037;DHT22;10677;50.942;4.028;2023-11-22T08:07:13;7.50;99.90
21037;DHT22;10677;50.942;4.028;2023-11-22T08:09:43;7.50;99.90
21037;DHT22;10677;50.942;4.028;2023-11-22T08:12:11;7.40;99.90
21037;DHT22;10677;50.942;4.028;2023-11-22T08:14:38;7.40;99.90
21037;DHT22;10677;50.942;4.028;2023-11-22T08:17:06;7.30;99.90
21037;DHT22;10677;50.942;4.028;2023-11-22T08:19:32;7.30;99.90
21037;DHT22;10677;50.942;4.028;2023-11-22T08:21:57;7.40;99.90
21037;DHT22;10677;50.942;4.028;2023-11-22T08:24:23;7.60;99.90
21037;DHT22;10677;50.942;4.028;2023-11-22T08:26:49;7.70;99.90
21037;DHT22;10677;50.942;4.028;2023-11-22T08:29:15;7.60;99.90
21037;DHT22;10677;50.942;4.028;2023-11-22T08:31:41;7.40;99.90
21037;DHT22;10677;50.942;4.028;2023-11-22T08:34:07;7.30;99.90
21037;DHT22;10677;50.942;4.028;2023-11-22T08:36:33;7.50;99.90
21037;DHT22;10677;50.942;4.028;2023-11-22T08:39:02;7.70;99.90
21037;DHT22;10677;50.942;4.028;2023-11-22T08:41:29;7.80;99.90
21037;DHT22;10677;50.942;4.028;2023-11-22T08:43:56;7.90;99.90
21037;DHT22;10677;50.942;4.028;2023-11-22T08:46:22;8.00;99.90
21037;DHT22;10677;50.942;4.028;2023-11-22T08:48:49;8.10;99.90
21037;DHT22;10677;50.942;4.028;2023-11-22T08:51:16;8.10;99.90
21037;DHT22;10677;50.942;4.028;2023-11-22T08:53:43;8.10;99.90
21037;DHT22;10677;50.942;4.028;2023-11-22T08:56:11;7.80;99.90
21037;DHT22;10677;50.942;4.028;2023-11-22T08:58:40;7.60;99.90
21037;DHT22;10677;50.942;4.028;2023-11-22T09:01:06;7.60;99.90
21037;DHT22;10677;50.942;4.028;2023-11-22T09:03:34;7.40;99.90
21037;DHT22;10677;50.942;4.028;2023-11-22T09:05:59;7.20;99.90
21037;DHT22;10677;50.942;4.028;2023-11-22T09:08:26;7.40;99.90
21037;DHT22;10677;50.942;4.028;2023-11-22T09:10:52;7.40;99.90
21037;DHT22;10677;50.942;4.028;2023-11-22T09:13:18;7.50;99.90
21037;DHT22;10677;50.942;4.028;2023-11-22T09:15:44;7.70;99.90
21037;DHT22;10677;50.942;4.028;2023-11-22T09:18:13;8.00;99.90
21037;DHT22;10677;50.942;4.028;2023-11-22T09:20:39;8.10;99.90
21037;DHT22;10677;50.942;4.028;2023-11-22T09:23:06;8.10;99.90
21037;DHT22;10677;50.942;4.028;2023-11-22T09:25:31;8.20;99.90
21037;DHT22;10677;50.942;4.028;2023-11-22T09:28:04;8.30;99.90
21037;DHT22;10677;50.942;4.028;2023-11-22T09:30:35;8.10;99.90
21037;DHT22;10677;50.942;4.028;2023-11-22T09:33:03;8.10;99.90
21037;DHT22;10677;50.942;4.028;2023-11-22T09:35:29;8.20;99.90
21037;DHT22;10677;50.942;4.028;2023-11-22T09:37:57;8.20;99.90
21037;DHT22;10677;50.942;4.028;2023-11-22T09:40:24;8.30;99.90
21037;DHT22;10677;50.942;4.028;2023-11-22T09:42:52;8.20;99.90
21037;DHT22;10677;50.942;4.028;2023-11-22T09:45:20;8.20;99.90
21037;DHT22;10677;50.942;4.028;2023-11-22T09:47:46;8.20;99.90
21037;DHT22;10677;50.942;4.028;2023-11-22T09:50:19;8.30;99.90
21037;DHT22;10677;50.942;4.028;2023-11-22T09:52:50;8.50;99.90
21037;DHT22;10677;50.942;4.028;2023-11-22T09:55:21;8.40;99.90
21037;DHT22;10677;50.942;4.028;2023-11-22T09:57:49;8.30;99.90
21037;DHT22;10677;50.942;4.028;2023-11-22T10:00:16;8.30;99.90
21037;DHT22;10677;50.942;4.028;2023-11-22T10:02:44;8.20;99.90
21037;DHT22;10677;50.942;4.028;2023-11-22T10:05:10;8.10;99.90
21037;DHT22;10677;50.942;4.028;2023-11-22T10:07:37;8.30;99.90
21037;DHT22;10677;50.942;4.028;2023-11-22T10:10:04;8.40;99.90
21037;DHT22;10677;50.942;4.028;2023-11-22T10:12:31;8.40;99.90
21037;DHT22;10677;50.942;4.028;2023-11-22T10:15:13;8.50;99.90
21037;DHT22;10677;50.942;4.028;2023-11-22T10:17:40;8.40;99.90
21037;DHT22;10677;50.942;4.028;2023-11-22T10:20:06;8.50;99.90
21037;DHT22;10677;50.942;4.028;2023-11-22T10:22:46;8.50;99.90
21037;DHT22;10677;50.942;4.028;2023-11-22T10:25:14;8.60;99.90
21037;DHT22;10677;50.942;4.028;2023-11-22T10:27:40;8.60;99.90
21037;DHT22;10677;50.942;4.028;2023-11-22T10:30:09;8.50;99.90
21037;DHT22;10677;50.942;4.028;2023-11-22T10:32:37;8.60;99.90
21037;DHT22;10677;50.942;4.028;2023-11-22T10:35:05;8.30;99.90
21037;DHT22;10677;50.942;4.028;2023-11-22T10:37:31;8.50;99.90
21037;DHT22;10677;50.942;4.028;2023-11-22T10:39:58;8.60;99.90
21037;DHT22;10677;50.942;4.028;2023-11-22T10:42:24;8.80;99.90
21037;DHT22;10677;50.942;4.028;2023-11-22T10:44:51;8.90;99.90
21037;DHT22;10677;50.942;4.028;2023-11-22T10:47:20;9.00;99.90
21037;DHT22;10677;50.942;4.028;2023-11-22T10:49:45;9.10;99.90
21037;DHT22;10677;50.942;4.028;2023-11-22T10:52:13;9.10;99.90
21037;DHT22;10677;50.942;4.028;2023-11-22T10:54:41;9.00;99.90
21037;DHT22;10677;50.942;4.028;2023-11-22T10:57:11;9.00;99.90
21037;DHT22;10677;50.942;4.028;2023-11-22T10:59:40;9.00;99.90
21037;DHT22;10677;50.942;4.028;2023-11-22T11:02:16;8.90;99.90
21037;DHT22;10677;50.942;4.028;2023-11-22T11:04:48;8.60;99.90
21037;DHT22;10677;50.942;4.028;2023-11-22T11:07:17;8.50;99.90
21037;DHT22;10677;50.942;4.028;2023-11-22T11:09:49;8.60;99.90
21037;DHT22;10677;50.942;4.028;2023-11-22T11:12:17;8.50;99.90
21037;DHT22;10677;50.942;4.028;2023-11-22T11:14:44;8.20;99.90
21037;DHT22;10677;50.942;4.028;2023-11-22T11:17:12;8.10;99.90
21037;DHT22;10677;50.942;4.028;2023-11-22T11:19:40;8.10;99.90
21037;DHT22;10677;50.942;4.028;2023-11-22T11:22:11;8.30;99.90
21037;DHT22;10677;50.942;4.028;2023-11-22T11:24:40;8.40;99.90
21037;DHT22;10677;50.942;4.028;2023-11-22T11:27:10;8.50;99.90
21037;DHT22;10677;50.942;4.028;2023-11-22T11:29:36;8.60;99.90
21037;DHT22;10677;50.942;4.028;2023-11-22T11:32:31;8.60;99.90
21037;DHT22;10677;50.942;4.028;2023-11-22T11:34:57;8.40;99.90
21037;DHT22;10677;50.942;4.028;2023-11-22T11:37:25;8.30;99.90
21037;DHT22;10677;50.942;4.028;2023-11-22T11:39:54;8.30;99.90
21037;DHT22;10677;50.942;4.028;2023-11-22T11:42:20;8.50;99.90
21037;DHT22;10677;50.942;4.028;2023-11-22T11:45:06;8.70;99.90
21037;DHT22;10677;50.942;4.028;2023-11-22T11:47:34;8.90;99.90
21037;DHT22;10677;50.942;4.028;2023-11-22T11:50:00;9.10;99.90
21037;DHT22;10677;50.942;4.028;2023-11-22T11:52:27;9.10;99.90
21037;DHT22;10677;50.942;4.028;2023-11-22T11:54:52;9.20;99.90
21037;DHT22;10677;50.942;4.028;2023-11-22T11:57:18;9.40;99.90
21037;DHT22;10677;50.942;4.028;2023-11-22T11:59:44;9.50;99.90
21037;DHT22;10677;50.942;4.028;2023-11-22T12:02:11;9.40;99.90
21037;DHT22;10677;50.942;4.028;2023-11-22T12:04:37;9.60;99.90
21037;DHT22;10677;50.942;4.028;2023-11-22T12:07:03;9.90;99.90
21037;DHT22;10677;50.942;4.028;2023-11-22T12:09:33;9.90;99.90
21037;DHT22;10677;50.942;4.028;2023-11-22T12:12:01;10.00;99.90
21037;DHT22;10677;50.942;4.028;2023-11-22T12:14:28;10.00;99.90
21037;DHT22;10677;50.942;4.028;2023-11-22T12:16:54;9.90;99.90
21037;DHT22;10677;50.942;4.028;2023-11-22T12:19:24;9.80;99.90
21037;DHT22;10677;50.942;4.028;2023-11-22T12:21:50;9.90;99.90
21037;DHT22;10677;50.942;4.028;2023-11-22T12:24:17;9.70;99.90
21037;DHT22;10677;50.942;4.028;2023-11-22T12:26:46;9.60;99.90
21037;DHT22;10677;50.942;4.028;2023-11-22T12:29:14;9.60;99.90
21037;DHT22;10677;50.942;4.028;2023-11-22T12:31:50;9.60;99.90
21037;DHT22;10677;50.942;4.028;2023-11-22T12:34:54;9.40;99.90
21037;DHT22;10677;50.942;4.028;2023-11-22T12:37:21;9.30;99.90
21037;DHT22;10677;50.942;4.028;2023-11-22T12:39:48;9.40;99.90
21037;DHT22;10677;50.942;4.028;2023-11-22T12:42:14;9.50;99.90
21037;DHT22;10677;50.942;4.028;2023-11-22T12:44:52;9.50;99.90
21037;DHT22;10677;50.942;4.028;2023-11-22T12:47:36;9.50;99.90
21037;DHT22;10677;50.942;4.028;2023-11-22T12:50:03;9.60;99.90
21037;DHT22;10677;50.942;4.028;2023-11-22T12:52:29;9.60;99.90
21037;DHT22;10677;50.942;4.028;2023-11-22T12:54:58;9.50;99.90
21037;DHT22;10677;50.942;4.028;2023-11-22T12:57:24;9.30;99.90
21037;DHT22;10677;50.942;4.028;2023-11-22T12:59:51;9.30;99.90
21037;DHT22;10677;50.942;4.028;2023-11-22T13:02:17;9.20;99.90
21037;DHT22;10677;50.942;4.028;2023-11-22T13:04:43;9.30;99.90
21037;DHT22;10677;50.942;4.028;2023-11-22T13:07:11;9.30;99.90
21037;DHT22;10677;50.942;4.028;2023-11-22T13:09:37;9.40;99.90
21037;DHT22;10677;50.942;4.028;2023-11-22T13:12:03;9.50;99.90
21037;DHT22;10677;50.942;4.028;2023-11-22T13:14:30;9.40;99.90
21037;DHT22;10677;50.942;4.028;2023-11-22T13:17:01;9.40;99.90
21037;DHT22;10677;50.942;4.028;2023-11-22T13:19:26;9.50;99.90
21037;DHT22;10677;50.942;4.028;2023-11-22T13:21:52;9.50;99.90
21037;DHT22;10677;50.942;4.028;2023-11-22T13:24:19;9.50;99.90
21037;DHT22;10677;50.942;4.028;2023-11-22T13:26:46;9.50;99.90
21037;DHT22;10677;50.942;4.028;2023-11-22T13:29:11;9.50;99.90
21037;DHT22;10677;50.942;4.028;2023-11-22T13:31:38;9.70;99.90
21037;DHT22;10677;50.942;4.028;2023-11-22T13:34:04;9.80;99.90
21037;DHT22;10677;50.942;4.028;2023-11-22T13:36:31;9.90;99.90
21037;DHT22;10677;50.942;4.028;2023-11-22T13:38:57;9.90;99.90
21037;DHT22;10677;50.942;4.028;2023-11-22T13:41:23;9.90;99.90
21037;DHT22;10677;50.942;4.028;2023-11-22T13:43:51;10.00;99.90
21037;DHT22;10677;50.942;4.028;2023-11-22T13:46:17;10.10;99.90
21037;DHT22;10677;50.942;4.028;2023-11-22T13:48:44;10.30;99.90
21037;DHT22;10677;50.942;4.028;2023-11-22T13:51:10;10.30;99.90
21037;DHT22;10677;50.942;4.028;2023-11-22T13:53:36;10.40;99.90
21037;DHT22;10677;50.942;4.028;2023-11-22T13:56:05;10.40;99.90
21037;DHT22;10677;50.942;4.028;2023-11-22T13:58:34;10.30;99.90
21037;DHT22;10677;50.942;4.028;2023-11-22T14:01:00;10.40;99.90
21037;DHT22;10677;50.942;4.028;2023-11-22T14:03:26;10.30;99.90
21037;DHT22;10677;50.942;4.028;2023-11-22T14:05:52;10.20;99.90
21037;DHT22;10677;50.942;4.028;2023-11-22T14:08:17;10.20;99.90
21037;DHT22;10677;50.942;4.028;2023-11-22T14:10:44;10.20;99.90
21037;DHT22;10677;50.942;4.028;2023-11-22T14:16:32;10.30;99.90
21037;DHT22;10677;50.942;4.028;2023-11-22T14:18:59;10.30;99.90
21037;DHT22;10677;50.942;4.028;2023-11-22T14:21:25;10.20;99.90
21037;DHT22;10677;50.942;4.028;2023-11-22T14:23:51;10.10;99.90
21037;DHT22;10677;50.942;4.028;2023-11-22T14:26:18;10.00;99.90
21037;DHT22;10677;50.942;4.028;2023-11-22T14:28:44;9.90;99.90
21037;DHT22;10677;50.942;4.028;2023-11-22T14:31:09;9.90;99.90
21037;DHT22;10677;50.942;4.028;2023-11-22T14:33:36;9.80;99.90
21037;DHT22;10677;50.942;4.028;2023-11-22T14:36:01;9.80;99.90
21037;DHT22;10677;50.942;4.028;2023-11-22T14:38:27;9.90;99.90
21037;DHT22;10677;50.942;4.028;2023-11-22T14:40:53;9.90;99.90
21037;DHT22;10677;50.942;4.028;2023-11-22T14:43:19;10.00;99.90
21037;DHT22;10677;50.942;4.028;2023-11-22T14:45:44;9.90;99.90
21037;DHT22;10677;50.942;4.028;2023-11-22T14:48:11;9.90;99.90
21037;DHT22;10677;50.942;4.028;2023-11-22T14:50:38;9.90;99.90
21037;DHT22;10677;50.942;4.028;2023-11-22T14:53:06;9.80;99.90
21037;DHT22;10677;50.942;4.028;2023-11-22T14:55:33;9.80;99.90
21037;DHT22;10677;50.942;4.028;2023-11-22T14:58:03;9.70;99.90
21037;DHT22;10677;50.942;4.028;2023-11-22T15:00:30;9.70;99.90
21037;DHT22;10677;50.942;4.028;2023-11-22T15:02:56;9.60;99.90
21037;DHT22;10677;50.942;4.028;2023-11-22T15:05:22;9.50;99.90
21037;DHT22;10677;50.942;4.028;2023-11-22T15:07:48;9.50;99.90
21037;DHT22;10677;50.942;4.028;2023-11-22T15:10:20;9.50;99.90
21037;DHT22;10677;50.942;4.028;2023-11-22T15:12:46;9.50;99.90
21037;DHT22;10677;50.942;4.028;2023-11-22T15:15:12;9.50;99.90
21037;DHT22;10677;50.942;4.028;2023-11-22T15:17:37;9.40;99.90
21037;DHT22;10677;50.942;4.028;2023-11-22T15:20:05;9.50;99.90
21037;DHT22;10677;50.942;4.028;2023-11-22T15:22:31;9.50;99.90
21037;DHT22;10677;50.942;4.028;2023-11-22T15:24:56;9.50;99.90
21037;DHT22;10677;50.942;4.028;2023-11-22T15:27:22;9.50;99.90
21037;DHT22;10677;50.942;4.028;2023-11-22T15:29:48;9.50;99.90
21037;DHT22;10677;50.942;4.028;2023-11-22T15:32:14;9.60;99.90
21037;DHT22;10677;50.942;4.028;2023-11-22T15:34:39;9.60;99.90
21037;DHT22;10677;50.942;4.028;2023-11-22T15:37:05;9.60;99.90
21037;DHT22;10677;50.942;4.028;2023-11-22T15:39:31;9.50;99.90
21037;DHT22;10677;50.942;4.028;2023-11-22T15:41:56;9.50;99.90
21037;DHT22;10677;50.942;4.028;2023-11-22T15:44:22;9.50;99.90
21037;DHT22;10677;50.942;4.028;2023-11-22T15:46:47;9.40;99.90